createdAt,value
2023-05-24T00:00:41.238Z,52.84
2023-05-24T00:03:25.561Z,52.86
2023-05-24T00:05:54.062Z,52.88
2023-05-24T00:08:22.856Z,52.89
2023-05-24T00:10:51.225Z,52.88
2023-05-24T00:13:19.866Z,52.95
2023-05-24T00:15:48.777Z,52.91
2023-05-24T00:18:18.319Z,53.02
2023-05-24T00:20:46.450Z,53.12
2023-05-24T00:23:16.783Z,53.24
2023-05-24T00:25:45.595Z,53.38
2023-05-24T00:28:13.463Z,53.34
2023-05-24T00:30:42.180Z,53.39
2023-05-24T00:33:10.472Z,53.36
2023-05-24T00:35:38.460Z,53.47
2023-05-24T00:38:06.412Z,53.51
2023-05-24T00:40:34.424Z,53.60
2023-05-24T00:43:02.367Z,53.60
2023-05-24T00:45:32.378Z,53.64
2023-05-24T00:48:02.063Z,53.67
2023-05-24T00:50:31.028Z,53.73
2023-05-24T00:53:00.954Z,53.74
2023-05-24T00:55:30.219Z,53.83
2023-05-24T00:57:58.681Z,53.81
2023-05-24T01:00:27.652Z,53.82
2023-05-24T01:02:56.231Z,53.81
2023-05-24T01:05:25.242Z,53.81
2023-05-24T01:08:04.164Z,53.77
2023-05-24T01:10:35.055Z,53.78
2023-05-24T01:13:06.659Z,53.76
2023-05-24T01:15:47.171Z,53.75
2023-05-24T01:18:30.451Z,53.72
2023-05-24T01:21:06.939Z,53.71
2023-05-24T01:23:45.256Z,53.75
2023-05-24T01:26:33.364Z,53.68
2023-05-24T01:29:02.629Z,53.72
2023-05-24T01:31:33.676Z,53.70
2023-05-24T01:34:01.931Z,53.78
2023-05-24T01:36:30.531Z,53.77
2023-05-24T01:38:58.827Z,53.73
2023-05-24T01:41:47.314Z,53.82
2023-05-24T01:44:35.634Z,53.80
2023-05-24T01:47:19.540Z,53.85
2023-05-24T01:49:54.260Z,53.77
2023-05-24T01:52:27.998Z,53.79
2023-05-24T01:54:57.252Z,53.73
2023-05-24T01:57:27.039Z,53.80
2023-05-24T01:59:56.312Z,53.81
2023-05-24T02:02:26.862Z,53.73
2023-05-24T02:04:56.460Z,53.73
2023-05-24T02:07:25.030Z,53.71
2023-05-24T02:09:54.257Z,53.72
2023-05-24T02:12:23.691Z,53.66
2023-05-24T02:14:52.248Z,53.66
2023-05-24T02:17:20.374Z,53.74
2023-05-24T02:19:48.623Z,53.80
2023-05-24T02:22:17.999Z,53.86
2023-05-24T02:24:48.685Z,53.85
2023-05-24T02:27:17.603Z,53.85
2023-05-24T02:29:46.004Z,53.82
2023-05-24T02:32:14.787Z,53.89
2023-05-24T02:34:43.065Z,53.89
2023-05-24T02:37:14.884Z,53.97
2023-05-24T02:39:43.054Z,53.91
2023-05-24T02:42:12.474Z,54.03
2023-05-24T02:44:42.606Z,53.97
2023-05-24T02:47:10.857Z,54.00
2023-05-24T02:49:39.033Z,53.97
2023-05-24T02:52:07.560Z,54.07
2023-05-24T02:54:37.073Z,54.03
2023-05-24T02:57:09.567Z,54.03
2023-05-24T02:59:37.716Z,54.08
2023-05-24T03:02:05.827Z,54.11
2023-05-24T03:04:34.500Z,54.10
2023-05-24T03:07:03.733Z,54.06
2023-05-24T03:09:32.113Z,54.06
2023-05-24T03:12:00.755Z,54.04
2023-05-24T03:14:29.164Z,54.11
2023-05-24T03:16:57.860Z,54.03
2023-05-24T03:19:26.128Z,54.12
2023-05-24T03:21:54.260Z,54.06
2023-05-24T03:24:22.281Z,54.12
2023-05-24T03:26:51.774Z,54.13
2023-05-24T03:29:21.149Z,54.09
2023-05-24T03:31:51.814Z,54.12
2023-05-24T03:34:19.966Z,54.17
2023-05-24T03:36:48.988Z,54.22
2023-05-24T03:39:17.181Z,54.32
2023-05-24T03:41:55.854Z,54.26
2023-05-24T03:44:24.509Z,54.34
2023-05-24T03:46:52.582Z,54.40
2023-05-24T03:49:21.288Z,54.46
2023-05-24T03:51:49.791Z,54.51
2023-05-24T03:54:19.727Z,54.56
2023-05-24T03:56:47.728Z,54.62
2023-05-24T03:59:15.931Z,54.60
2023-05-24T04:01:44.795Z,54.62
2023-05-24T04:04:12.923Z,54.68
2023-05-24T04:06:42.417Z,54.73
2023-05-24T04:09:11.256Z,54.79
2023-05-24T04:11:40.414Z,54.86
2023-05-24T04:14:08.478Z,54.98
2023-05-24T04:16:39.853Z,54.96
2023-05-24T04:19:09.295Z,55.01
2023-05-24T04:21:37.875Z,54.94
2023-05-24T04:24:07.037Z,55.15
2023-05-24T04:26:35.121Z,55.17
2023-05-24T04:29:04.851Z,55.23
2023-05-24T04:31:34.554Z,55.21
2023-05-24T04:34:07.652Z,55.35
2023-05-24T04:36:36.177Z,55.24
2023-05-24T04:39:05.536Z,55.40
2023-05-24T04:41:36.075Z,55.43
2023-05-24T04:44:04.992Z,55.58
2023-05-24T04:46:36.729Z,55.52
2023-05-24T04:49:05.792Z,55.57
2023-05-24T04:51:34.623Z,55.66
2023-05-24T04:54:09.158Z,55.64
2023-05-24T04:56:38.826Z,55.70
2023-05-24T04:59:07.967Z,55.78
2023-05-24T05:01:36.485Z,55.78
2023-05-24T05:04:06.266Z,55.78
2023-05-24T05:06:38.979Z,55.89
2023-05-24T05:09:11.957Z,56.02
2023-05-24T05:11:41.184Z,56.09
2023-05-24T05:14:09.948Z,56.19
2023-05-24T05:16:38.610Z,56.25
2023-05-24T05:19:06.955Z,56.39
2023-05-24T05:21:35.061Z,56.53
2023-05-24T05:24:04.205Z,56.48
2023-05-24T05:26:33.516Z,56.53
2023-05-24T05:29:01.487Z,56.62
2023-05-24T05:31:29.849Z,56.75
2023-05-24T05:33:57.959Z,56.77
2023-05-24T05:36:26.302Z,56.78
2023-05-24T05:38:54.797Z,56.78
2023-05-24T05:41:22.794Z,56.81
2023-05-24T05:43:51.848Z,56.88
2023-05-24T05:46:22.404Z,56.93
2023-05-24T05:48:50.775Z,56.89
2023-05-24T05:51:18.885Z,56.88
2023-05-24T05:53:47.771Z,56.82
2023-05-24T05:56:16.311Z,56.75
2023-05-24T05:58:44.443Z,56.70
2023-05-24T06:01:13.669Z,56.67
2023-05-24T06:03:42.077Z,56.58
2023-05-24T06:06:10.917Z,56.70
2023-05-24T06:08:41.175Z,56.76
2023-05-24T06:11:10.764Z,56.76
2023-05-24T06:13:39.394Z,56.71
2023-05-24T06:16:10.429Z,56.73
2023-05-24T06:18:41.680Z,56.61
2023-05-24T06:21:11.982Z,56.60
2023-05-24T06:23:40.088Z,56.63
2023-05-24T06:26:10.935Z,56.48
2023-05-24T06:28:40.039Z,56.58
2023-05-24T06:31:08.267Z,56.42
2023-05-24T06:33:38.261Z,56.46
2023-05-24T06:36:07.438Z,56.39
2023-05-24T06:38:36.708Z,56.33
2023-05-24T06:41:04.805Z,56.30
2023-05-24T06:43:33.913Z,56.27
2023-05-24T06:46:02.395Z,56.26
2023-05-24T06:48:31.716Z,56.18
2023-05-24T06:51:00.736Z,56.07
2023-05-24T06:53:28.706Z,56.09
2023-05-24T06:55:57.836Z,56.09
2023-05-24T06:58:26.469Z,56.11
2023-05-24T07:00:55.825Z,55.97
2023-05-24T07:03:24.183Z,55.98
2023-05-24T07:05:52.727Z,55.90
2023-05-24T07:08:20.960Z,56.02
2023-05-24T07:10:49.636Z,55.88
2023-05-24T07:13:19.346Z,55.90
2023-05-24T07:15:47.586Z,55.78
2023-05-24T07:18:15.634Z,55.79
2023-05-24T07:20:44.211Z,55.69
2023-05-24T07:23:12.638Z,55.60
2023-05-24T07:25:41.199Z,55.61
2023-05-24T07:28:09.340Z,55.48
2023-05-24T07:30:38.850Z,55.58
2023-05-24T07:33:09.066Z,55.46
2023-05-24T07:35:37.187Z,55.50
2023-05-24T07:38:06.264Z,55.32
2023-05-24T07:40:34.257Z,55.48
2023-05-24T07:43:04.100Z,55.46
2023-05-24T07:45:32.939Z,55.47
2023-05-24T07:48:01.896Z,55.27
2023-05-24T07:50:30.464Z,55.37
2023-05-24T07:52:58.643Z,55.26
2023-05-24T07:55:28.272Z,55.23
2023-05-24T07:57:58.849Z,55.17
2023-05-24T08:00:28.059Z,55.27
2023-05-24T08:02:57.983Z,55.20
2023-05-24T08:05:26.213Z,55.12
2023-05-24T08:07:58.244Z,55.04
2023-05-24T08:10:27.185Z,55.04
2023-05-24T08:12:56.231Z,55.01
2023-05-24T08:15:24.889Z,55.03
2023-05-24T08:17:53.285Z,54.92
2023-05-24T08:20:21.462Z,54.92
2023-05-24T08:22:49.584Z,54.87
2023-05-24T08:25:17.870Z,54.87
2023-05-24T08:27:45.938Z,54.83
2023-05-24T08:30:18.010Z,54.75
2023-05-24T08:32:46.342Z,54.69
2023-05-24T08:37:46.105Z,54.69
2023-05-24T08:40:14.308Z,54.76
2023-05-24T08:42:42.920Z,54.67
2023-05-24T08:45:12.545Z,54.68
2023-05-24T08:47:42.743Z,54.71
2023-05-24T08:50:13.786Z,54.71
2023-05-24T08:52:44.214Z,54.61
2023-05-24T08:55:12.657Z,54.65
2023-05-24T08:57:41.810Z,54.55
2023-05-24T09:00:14.125Z,54.51
2023-05-24T09:02:44.473Z,54.53
2023-05-24T09:05:22.612Z,54.51
2023-05-24T09:07:53.508Z,54.50
2023-05-24T09:10:22.934Z,54.49
2023-05-24T09:12:58.286Z,54.42
2023-05-24T09:15:27.180Z,54.36
2023-05-24T09:17:56.161Z,54.33
2023-05-24T09:20:24.437Z,54.36
2023-05-24T09:22:58.462Z,54.34
2023-05-24T09:25:28.247Z,54.32
2023-05-24T09:27:56.689Z,54.29
2023-05-24T09:30:24.760Z,54.27
2023-05-24T09:33:00.017Z,54.22
2023-05-24T09:35:29.631Z,54.22
2023-05-24T09:38:00.482Z,54.14
2023-05-24T09:40:29.998Z,54.14
2023-05-24T09:43:11.746Z,54.17
2023-05-24T09:45:47.458Z,54.08
2023-05-24T09:48:20.974Z,54.04
2023-05-24T09:51:00.142Z,54.02
2023-05-24T09:53:28.756Z,53.97
2023-05-24T09:55:56.805Z,53.96
2023-05-24T09:58:29.214Z,53.83
2023-05-24T10:01:04.269Z,53.82
2023-05-24T10:03:32.421Z,53.78
2023-05-24T10:06:02.208Z,53.80
2023-05-24T10:08:31.656Z,53.66
2023-05-24T10:11:01.494Z,53.56
2023-05-24T10:13:29.760Z,53.59
2023-05-24T10:15:58.648Z,53.56
2023-05-24T10:18:26.710Z,53.59
2023-05-24T10:20:55.987Z,53.53
2023-05-24T10:23:24.877Z,53.47
2023-05-24T10:26:08.177Z,53.29
2023-05-24T10:28:38.992Z,53.28
2023-05-24T10:31:25.924Z,52.99
2023-05-24T10:36:45.408Z,52.35
2023-05-24T10:39:13.776Z,51.10
2023-05-24T10:41:42.307Z,50.75
2023-05-24T10:41:49.890Z,52.92
2023-05-24T10:44:12.308Z,51.12
2023-05-24T10:46:59.419Z,51.11
2023-05-24T10:49:27.480Z,51.46
2023-05-24T10:52:03.098Z,51.66
2023-05-24T10:54:31.628Z,51.89
2023-05-24T10:57:04.960Z,52.09
2023-05-24T10:59:38.271Z,52.40
2023-05-24T11:02:10.225Z,52.57
2023-05-24T11:04:57.869Z,52.68
2023-05-24T11:07:26.410Z,52.78
2023-05-24T11:09:59.922Z,52.86
2023-05-24T11:12:34.747Z,53.01
2023-05-24T11:15:03.858Z,53.13
2023-05-24T11:17:51.733Z,53.43
2023-05-24T11:20:21.178Z,53.55
2023-05-24T11:22:49.179Z,53.65
2023-05-24T11:25:18.545Z,53.86
2023-05-24T11:27:47.055Z,54.06
2023-05-24T11:30:16.616Z,54.25
2023-05-24T11:32:48.573Z,54.39
2023-05-24T11:35:19.362Z,54.54
2023-05-24T11:37:49.651Z,54.59
2023-05-24T11:40:18.239Z,54.81
2023-05-24T11:42:47.697Z,54.85
2023-05-24T11:45:18.684Z,55.01
2023-05-24T11:47:48.691Z,55.12
2023-05-24T11:50:45.884Z,55.24
2023-05-24T11:53:15.571Z,55.39
2023-05-24T11:55:43.986Z,55.42
2023-05-24T11:58:26.326Z,55.50
2023-05-24T12:00:54.386Z,55.67
2023-05-24T12:03:23.367Z,55.74
2023-05-24T12:05:53.007Z,55.83
2023-05-24T12:08:21.544Z,55.93
2023-05-24T12:10:50.772Z,56.16
2023-05-24T12:13:23.680Z,56.23
2023-05-24T12:15:56.599Z,56.38
2023-05-24T12:18:27.178Z,56.47
2023-05-24T12:20:56.016Z,56.58
2023-05-24T12:23:24.964Z,56.78
2023-05-24T12:26:00.217Z,56.80
2023-05-24T12:28:32.476Z,56.95
2023-05-24T12:31:00.630Z,57.11
2023-05-24T12:33:29.763Z,57.04
2023-05-24T12:35:58.803Z,57.33
2023-05-24T12:38:26.804Z,57.44
2023-05-24T12:41:11.552Z,57.48
2023-05-24T12:43:44.907Z,57.71
2023-05-24T12:46:13.870Z,57.77
2023-05-24T12:48:42.002Z,57.83
2023-05-24T12:51:11.935Z,57.94
2023-05-24T12:53:40.336Z,58.10
2023-05-24T12:56:08.823Z,58.04
2023-05-24T12:58:36.937Z,58.18
2023-05-24T13:01:05.024Z,58.31
2023-05-24T13:03:33.156Z,58.40
2023-05-24T13:06:02.142Z,58.55
2023-05-24T13:08:30.813Z,58.57
2023-05-24T13:10:58.833Z,58.67
2023-05-24T13:13:29.386Z,58.80
2023-05-24T13:15:57.790Z,58.80
2023-05-24T13:18:26.379Z,58.81
2023-05-24T13:20:54.501Z,58.98
2023-05-24T13:23:25.012Z,59.03
2023-05-24T13:25:54.112Z,58.98
2023-05-24T13:28:22.435Z,59.09
2023-05-24T13:30:51.021Z,59.26
2023-05-24T13:33:19.534Z,59.31
2023-05-24T13:35:48.279Z,59.51
2023-05-24T13:38:16.234Z,59.51
2023-05-24T13:40:46.540Z,59.72
2023-05-24T13:43:17.276Z,59.63
2023-05-24T13:45:45.879Z,59.74
2023-05-24T13:48:15.368Z,59.80
2023-05-24T13:50:45.107Z,59.91
2023-05-24T13:53:14.447Z,59.90
2023-05-24T13:55:42.727Z,59.75
2023-05-24T13:58:10.822Z,59.86
2023-05-24T14:00:39.320Z,59.78
2023-05-24T14:03:07.438Z,59.76
2023-05-24T14:05:35.508Z,59.85
2023-05-24T14:08:07.142Z,59.94
2023-05-24T14:10:37.183Z,59.87
2023-05-24T14:15:37.877Z,59.87
2023-05-24T14:18:08.881Z,59.93
2023-05-24T14:20:38.562Z,59.97
2023-05-24T14:23:08.185Z,59.93
2023-05-24T14:25:36.923Z,60.02
2023-05-24T14:28:05.588Z,59.93
2023-05-24T14:30:37.778Z,59.93
2023-05-24T14:33:08.712Z,59.92
2023-05-24T14:35:40.088Z,59.85
2023-05-24T14:38:10.390Z,59.88
2023-05-24T14:40:40.472Z,59.86
2023-05-24T14:43:10.961Z,59.81
2023-05-24T14:45:42.528Z,59.79
2023-05-24T14:48:11.854Z,59.77
2023-05-24T14:50:41.427Z,59.78
2023-05-24T14:53:12.754Z,59.73
2023-05-24T14:55:43.499Z,59.76
2023-05-24T14:58:12.788Z,59.80
2023-05-24T15:00:43.164Z,59.77
2023-05-24T15:03:13.167Z,59.65
2023-05-24T15:05:42.897Z,59.66
2023-05-24T15:08:11.919Z,59.70
2023-05-24T15:10:41.385Z,59.61
2023-05-24T15:13:10.374Z,59.54
2023-05-24T15:15:38.428Z,59.59
2023-05-24T15:18:07.103Z,59.60
2023-05-24T15:20:35.881Z,59.55
2023-05-24T15:23:05.135Z,59.55
2023-05-24T15:25:33.619Z,59.58
2023-05-24T15:28:02.472Z,59.50
2023-05-24T15:30:31.727Z,59.51
2023-05-24T15:32:59.928Z,59.47
2023-05-24T15:35:28.305Z,59.56
2023-05-24T15:37:56.195Z,59.57
2023-05-24T15:40:24.877Z,59.47
2023-05-24T15:42:53.688Z,59.42
2023-05-24T15:45:22.060Z,59.36
2023-05-24T15:47:50.809Z,59.48
2023-05-24T15:50:28.507Z,59.47
2023-05-24T15:53:04.524Z,59.44
2023-05-24T15:55:33.980Z,59.53
2023-05-24T15:58:02.999Z,59.49
2023-05-24T16:00:32.499Z,59.53
2023-05-24T16:03:00.697Z,59.50
2023-05-24T16:05:29.819Z,59.57
2023-05-24T16:07:58.650Z,59.51
2023-05-24T16:10:27.297Z,59.53
2023-05-24T16:12:56.150Z,59.57
2023-05-24T16:15:24.690Z,59.48
2023-05-24T16:17:52.795Z,59.55
2023-05-24T16:20:20.941Z,59.58
2023-05-24T16:22:49.870Z,59.57
2023-05-24T16:25:19.649Z,59.57
2023-05-24T16:27:48.434Z,59.66
2023-05-24T16:30:16.729Z,59.62
2023-05-24T16:32:46.403Z,59.64
2023-05-24T16:35:14.984Z,59.64
2023-05-24T16:37:43.388Z,59.65
2023-05-24T16:40:11.891Z,59.66
2023-05-24T16:42:39.892Z,59.69
2023-05-24T16:45:08.438Z,59.66
2023-05-24T16:47:36.811Z,59.60
2023-05-24T16:50:05.302Z,59.71
2023-05-24T16:52:33.474Z,59.82
2023-05-24T16:55:02.309Z,59.88
2023-05-24T16:57:31.286Z,59.97
2023-05-24T17:00:00.432Z,59.97
2023-05-24T17:02:28.418Z,60.19
2023-05-24T17:04:56.960Z,60.28
2023-05-24T17:07:25.529Z,60.29
2023-05-24T17:09:53.555Z,60.32
2023-05-24T17:12:22.655Z,60.46
2023-05-24T17:14:51.554Z,60.50
2023-05-24T17:17:20.372Z,60.59
2023-05-24T17:19:48.343Z,60.69
2023-05-24T17:22:16.366Z,60.83
2023-05-24T17:24:45.667Z,60.71
2023-05-24T17:27:14.087Z,60.80
2023-05-24T17:29:44.801Z,60.77
2023-05-24T17:32:12.929Z,60.85
2023-05-24T17:34:40.990Z,60.97
2023-05-24T17:37:08.849Z,61.01
2023-05-24T17:39:38.798Z,61.02
2023-05-24T17:42:07.480Z,61.18
2023-05-24T17:44:35.722Z,61.12
2023-05-24T17:47:04.660Z,61.26
2023-05-24T17:49:32.602Z,61.26
2023-05-24T17:52:01.130Z,61.29
2023-05-24T17:54:29.754Z,61.32
2023-05-24T17:56:57.987Z,61.36
2023-05-24T17:59:26.806Z,61.39
2023-05-24T18:01:54.964Z,61.53
2023-05-24T18:04:24.007Z,61.58
2023-05-24T18:06:52.318Z,61.53
2023-05-24T18:09:24.556Z,61.64
2023-05-24T18:11:53.049Z,61.64
2023-05-24T18:14:21.285Z,61.76
2023-05-24T18:16:50.198Z,61.69
2023-05-24T18:19:18.327Z,61.78
2023-05-24T18:21:47.006Z,61.74
2023-05-24T18:24:15.394Z,61.83
2023-05-24T18:26:46.458Z,61.87
2023-05-24T18:29:16.491Z,61.91
2023-05-24T18:31:44.526Z,62.07
2023-05-24T18:34:12.912Z,62.24
2023-05-24T18:36:41.279Z,62.29
2023-05-24T18:39:09.865Z,62.47
2023-05-24T18:41:37.909Z,62.40
2023-05-24T18:44:06.043Z,62.42
2023-05-24T18:46:36.368Z,62.46
2023-05-24T18:49:07.934Z,62.42
2023-05-24T18:51:37.971Z,62.48
2023-05-24T18:54:06.698Z,62.47
2023-05-24T18:56:34.738Z,62.38
2023-05-24T18:59:03.120Z,62.33
2023-05-24T19:01:30.996Z,62.22
2023-05-24T19:03:58.962Z,62.26
2023-05-24T19:06:27.304Z,62.37
2023-05-24T19:08:55.338Z,62.39
2023-05-24T19:11:23.981Z,62.39
2023-05-24T19:13:52.167Z,62.40
2023-05-24T19:16:20.865Z,62.32
2023-05-24T19:18:49.073Z,62.28
2023-05-24T19:21:17.824Z,62.18
2023-05-24T19:23:45.874Z,62.04
2023-05-24T19:26:18.103Z,62.01
2023-05-24T19:28:54.142Z,62.06
2023-05-24T19:31:30.208Z,62.14
2023-05-24T19:34:00.652Z,62.10
2023-05-24T19:36:30.790Z,62.10
2023-05-24T19:38:59.961Z,62.18
2023-05-24T19:41:28.042Z,61.99
2023-05-24T19:43:59.816Z,62.00
2023-05-24T19:46:29.101Z,62.11
2023-05-24T19:48:58.638Z,62.06
2023-05-24T19:51:26.690Z,62.01
2023-05-24T19:53:55.189Z,62.04
2023-05-24T19:56:23.913Z,61.99
2023-05-24T19:58:53.170Z,61.97
2023-05-24T20:01:21.739Z,62.00
2023-05-24T20:03:50.259Z,61.96
2023-05-24T20:06:18.670Z,61.89
2023-05-24T20:08:46.761Z,61.91
2023-05-24T20:11:17.819Z,61.96
2023-05-24T20:13:45.733Z,61.94
2023-05-24T20:16:14.368Z,62.04
2023-05-24T20:18:43.046Z,62.22
2023-05-24T20:21:13.125Z,62.02
2023-05-24T20:23:41.943Z,62.22
2023-05-24T20:26:09.899Z,62.23
2023-05-24T20:28:39.142Z,62.31
2023-05-24T20:31:08.380Z,62.20
2023-05-24T20:33:38.616Z,62.34
2023-05-24T20:36:08.190Z,62.44
2023-05-24T20:38:37.471Z,62.35
2023-05-24T20:41:05.613Z,62.42
2023-05-24T20:43:33.501Z,62.43
2023-05-24T20:46:01.914Z,62.26
2023-05-24T20:48:32.184Z,62.38
2023-05-24T20:51:01.486Z,62.35
2023-05-24T20:53:30.632Z,62.39
2023-05-24T20:55:59.624Z,62.49
2023-05-24T20:58:28.155Z,62.51
2023-05-24T21:00:56.584Z,62.67
2023-05-24T21:03:24.989Z,62.62
2023-05-24T21:05:53.182Z,62.68
2023-05-24T21:08:21.332Z,62.78
2023-05-24T21:10:50.438Z,62.81
2023-05-24T21:13:20.646Z,62.75
2023-05-24T21:15:50.859Z,62.83
2023-05-24T21:18:19.647Z,62.79
2023-05-24T21:20:48.106Z,62.94
2023-05-24T21:23:16.592Z,62.97
2023-05-24T21:25:45.200Z,62.95
2023-05-24T21:28:14.340Z,62.98
2023-05-24T21:30:42.363Z,63.04
2023-05-24T21:33:11.463Z,63.05
2023-05-24T21:35:39.484Z,63.09
2023-05-24T21:38:09.355Z,63.16
2023-05-24T21:40:37.758Z,63.19
2023-05-24T21:43:12.310Z,63.03
2023-05-24T21:45:44.123Z,63.19
2023-05-24T21:48:12.735Z,63.14
2023-05-24T21:50:40.781Z,63.29
2023-05-24T21:53:10.233Z,63.32
2023-05-24T21:55:38.490Z,63.21
2023-05-24T21:58:07.168Z,63.22
2023-05-24T22:00:35.971Z,63.30
2023-05-24T22:03:05.765Z,63.27
2023-05-24T22:05:34.253Z,63.32
2023-05-24T22:08:02.590Z,63.28
2023-05-24T22:10:31.036Z,63.31
2023-05-24T22:12:59.251Z,63.26
2023-05-24T22:15:28.632Z,63.31
2023-05-24T22:17:58.879Z,63.33
2023-05-24T22:20:27.824Z,63.41
2023-05-24T22:22:55.947Z,63.47
2023-05-24T22:25:24.422Z,63.36
2023-05-24T22:27:55.677Z,63.50
2023-05-24T22:30:24.076Z,63.52
2023-05-24T22:32:52.608Z,63.47
2023-05-24T22:35:20.731Z,63.54
2023-05-24T22:37:49.347Z,63.55
2023-05-24T22:40:18.205Z,63.68
2023-05-24T22:42:46.306Z,63.61
2023-05-24T22:45:14.155Z,63.68
2023-05-24T22:47:42.202Z,63.64
2023-05-24T22:50:12.330Z,63.65
2023-05-24T22:52:43.164Z,63.74
2023-05-24T22:55:12.346Z,63.69
2023-05-24T22:57:42.298Z,63.68
2023-05-24T23:00:11.976Z,63.88
2023-05-24T23:02:39.994Z,63.81
2023-05-24T23:05:09.716Z,63.88
2023-05-24T23:07:39.970Z,63.80
2023-05-24T23:10:09.458Z,64.01
2023-05-24T23:12:42.682Z,63.91
2023-05-24T23:15:16.746Z,63.88
2023-05-24T23:17:44.978Z,63.99
2023-05-24T23:20:14.620Z,64.04
2023-05-24T23:22:44.179Z,64.16
2023-05-24T23:25:12.252Z,64.13
2023-05-24T23:27:41.131Z,64.05
2023-05-24T23:30:10.312Z,64.22
2023-05-24T23:32:38.887Z,64.12
2023-05-24T23:35:07.086Z,64.17
2023-05-24T23:37:35.419Z,64.05
2023-05-24T23:40:06.647Z,64.04
2023-05-24T23:42:34.735Z,63.98
2023-05-24T23:45:02.941Z,63.98
2023-05-24T23:47:30.856Z,64.00
2023-05-24T23:49:58.849Z,63.96
2023-05-24T23:52:27.130Z,63.85
2023-05-24T23:54:55.670Z,63.96
2023-05-24T23:57:25.066Z,63.95
2023-05-24T23:59:54.089Z,63.83
